Yokosuka Fwf, Japan

5:21 PM JST on September 03, 2015 (GMT +0900)
Tokyo (Haneda) International | | Change Station
CLOSE
Current Station
Airport
Location: Tokyo,
Elevation: 26 ft
Nearby Weather Stations

Elev 26 ft 35.55 °N, 139.78 °E | Updated 21 minutes ago

Light Rain Showers
Light Showers Rain
81 °F
Feels Like 85 °F
N
21
Wind Variable Wind from SW

Today
High -- | Low -- °F
--% Chance of Precip.
Yesterday
High -- | Low -- °F
Precip. -- in
5:14 AM 6:06 PM
Waning Gibbous, 72% visible
Pressure 29.83 in
Visibility 6.2 miles
Clouds Few 1500 ft
Scattered Clouds 3000 ft
Mostly Cloudy 8000 ft
Heat Index 85 °F
Dew Point 72 °F
Humidity 74%
Rainfall 0.00 in
Snow Depth Not available.
UV 0 out of 12
Pollen Not available.
Air Quality Not available.
Flu Activity Not available.
METAR RJTT 030800Z 22018KT 9999 -SHRA FEW015 SCT030 BKN080 27/22 Q1010 NOSIG RMK 1CU015 3CU030 6AC080 A2984
Pressure 29.83 in
Visibility 6.2 miles
Clouds Few 1500 ft
Scattered Clouds 3000 ft
Mostly Cloudy 8000 ft
Heat Index 85 °F
Dew Point 72 °F
Humidity 74%
Rainfall 0.00 in
Snow Depth Not available.
UV 0 out of 12
Pollen Not available.
Air Quality Not available.
Flu Activity Not available.
METAR RJTT 030800Z 22018KT 9999 -SHRA FEW015 SCT030 BKN080 27/22 Q1010 NOSIG RMK 1CU015 3CU030 6AC080 A2984

10-Day Weather Forecast

×

Almanac

Astronomy

Sep. 03, 2015 Rise Set
Actual Time
Civil Twilight
Nautical Twilight
Astronomical Twilight
Moon
Length of Visible Light
Length of Day
Tomorrow will be .
, % of the Moon is Illuminated

Today's Extremes

Country Highs Country Lows

Community

WunderPhotos

Upload Photos

1,851,919 photos uploaded!

WunderBlogs® & News

Nearby

Air Quality

  Air Quality AQ Index Pollutant
Not available.

Snow Depth

Station Depth Elevation

Earthquake Activity

City Distance Mag. Time & Date
Minimum magnitude displayed is 2.5.

Coastal Water Temperatures

Place Temperature

Stations

Nearby Weather Stations

Station Location Temp. Windchill Dew Point Humidity Wind Precip. Elev Updated Type